sensor_id;sensor_type;location;lat;lon;timestamp;temperature;humidity
34360;DHT22;20624;55.870;26.506;2022-11-20T00:01:22;-4.60;99.90
34360;DHT22;20624;55.870;26.506;2022-11-20T00:03:52;-3.80;99.90
34360;DHT22;20624;55.870;26.506;2022-11-20T00:11:20;-4.70;99.90
34360;DHT22;20624;55.870;26.506;2022-11-20T00:13:49;-4.80;99.90
34360;DHT22;20624;55.870;26.506;2022-11-20T00:16:19;-4.80;99.90
34360;DHT22;20624;55.870;26.506;2022-11-20T00:18:47;-4.80;99.90
34360;DHT22;20624;55.870;26.506;2022-11-20T00:21:23;-4.80;99.90
34360;DHT22;20624;55.870;26.506;2022-11-20T00:23:53;-4.80;99.90
34360;DHT22;20624;55.870;26.506;2022-11-20T00:26:23;-4.80;99.90
34360;DHT22;20624;55.870;26.506;2022-11-20T00:28:53;-4.90;99.90
34360;DHT22;20624;55.870;26.506;2022-11-20T00:31:21;-4.70;99.90
34360;DHT22;20624;55.870;26.506;2022-11-20T00:36:18;-4.90;99.90
34360;DHT22;20624;55.870;26.506;2022-11-20T00:38:46;-4.90;99.90
34360;DHT22;20624;55.870;26.506;2022-11-20T00:41:15;-5.00;99.90
34360;DHT22;20624;55.870;26.506;2022-11-20T00:43:43;-5.00;99.90
34360;DHT22;20624;55.870;26.506;2022-11-20T00:46:14;-5.00;99.90
34360;DHT22;20624;55.870;26.506;2022-11-20T00:51:12;-5.10;99.90
34360;DHT22;20624;55.870;26.506;2022-11-20T00:53:41;-5.20;99.90
34360;DHT22;20624;55.870;26.506;2022-11-20T00:56:11;-5.20;99.90
34360;DHT22;20624;55.870;26.506;2022-11-20T00:58:41;-5.30;99.90
34360;DHT22;20624;55.870;26.506;2022-11-20T01:01:13;-5.30;99.90
34360;DHT22;20624;55.870;26.506;2022-11-20T01:03:43;-5.30;99.90
34360;DHT22;20624;55.870;26.506;2022-11-20T01:06:31;-5.40;99.90
34360;DHT22;20624;55.870;26.506;2022-11-20T01:09:02;-5.40;99.90
34360;DHT22;20624;55.870;26.506;2022-11-20T01:11:36;-5.50;99.90
34360;DHT22;20624;55.870;26.506;2022-11-20T01:14:06;-6.80;99.90
34360;DHT22;20624;55.870;26.506;2022-11-20T01:16:37;-5.60;99.90
34360;DHT22;20624;55.870;26.506;2022-11-20T01:19:07;-4.10;99.90
34360;DHT22;20624;55.870;26.506;2022-11-20T01:21:37;-5.80;99.90
34360;DHT22;20624;55.870;26.506;2022-11-20T01:24:06;-5.70;99.90
34360;DHT22;20624;55.870;26.506;2022-11-20T01:26:40;-5.80;99.90
34360;DHT22;20624;55.870;26.506;2022-11-20T01:29:14;-5.90;99.90
34360;DHT22;20624;55.870;26.506;2022-11-20T01:31:42;-5.90;99.90
34360;DHT22;20624;55.870;26.506;2022-11-20T01:34:13;-6.00;99.90
34360;DHT22;20624;55.870;26.506;2022-11-20T01:36:42;-6.00;99.90
34360;DHT22;20624;55.870;26.506;2022-11-20T01:39:18;-5.90;99.90
34360;DHT22;20624;55.870;26.506;2022-11-20T01:47:38;-5.90;99.90
34360;DHT22;20624;55.870;26.506;2022-11-20T01:50:33;-6.00;99.90
34360;DHT22;20624;55.870;26.506;2022-11-20T01:53:05;-6.00;99.90
34360;DHT22;20624;55.870;26.506;2022-11-20T01:55:37;-5.40;99.90
34360;DHT22;20624;55.870;26.506;2022-11-20T01:58:06;-6.00;99.90
34360;DHT22;20624;55.870;26.506;2022-11-20T02:00:33;-5.90;99.90
34360;DHT22;20624;55.870;26.506;2022-11-20T02:03:06;-5.90;99.90
34360;DHT22;20624;55.870;26.506;2022-11-20T02:05:38;-6.00;99.90
34360;DHT22;20624;55.870;26.506;2022-11-20T02:08:09;-5.90;99.90
34360;DHT22;20624;55.870;26.506;2022-11-20T02:10:36;-5.90;99.90
34360;DHT22;20624;55.870;26.506;2022-11-20T02:13:04;-5.90;99.90
34360;DHT22;20624;55.870;26.506;2022-11-20T02:18:20;-5.80;99.90
34360;DHT22;20624;55.870;26.506;2022-11-20T02:25:49;-5.70;99.90
34360;DHT22;20624;55.870;26.506;2022-11-20T02:28:19;-5.40;99.90
34360;DHT22;20624;55.870;26.506;2022-11-20T02:30:47;-5.60;99.90
34360;DHT22;20624;55.870;26.506;2022-11-20T02:33:15;-5.70;99.90
34360;DHT22;20624;55.870;26.506;2022-11-20T02:35:47;-5.50;99.90
34360;DHT22;20624;55.870;26.506;2022-11-20T02:38:15;-5.40;99.90
34360;DHT22;20624;55.870;26.506;2022-11-20T02:45:48;-5.20;99.90
34360;DHT22;20624;55.870;26.506;2022-11-20T02:50:43;-5.20;99.90
34360;DHT22;20624;55.870;26.506;2022-11-20T02:53:11;-5.10;99.90
34360;DHT22;20624;55.870;26.506;2022-11-20T02:58:06;-5.10;99.90
34360;DHT22;20624;55.870;26.506;2022-11-20T03:00:34;-5.00;99.90
34360;DHT22;20624;55.870;26.506;2022-11-20T03:03:02;-5.10;99.90
34360;DHT22;20624;55.870;26.506;2022-11-20T03:05:29;-5.10;99.90
34360;DHT22;20624;55.870;26.506;2022-11-20T03:07:57;-5.00;99.90
34360;DHT22;20624;55.870;26.506;2022-11-20T03:10:24;-4.90;99.90
34360;DHT22;20624;55.870;26.506;2022-11-20T03:12:55;-4.90;99.90
34360;DHT22;20624;55.870;26.506;2022-11-20T03:15:23;-5.00;99.90
34360;DHT22;20624;55.870;26.506;2022-11-20T03:17:54;-4.80;99.90
34360;DHT22;20624;55.870;26.506;2022-11-20T03:20:22;-4.80;99.90
34360;DHT22;20624;55.870;26.506;2022-11-20T03:22:50;-4.80;99.90
34360;DHT22;20624;55.870;26.506;2022-11-20T03:27:46;-4.70;99.90
34360;DHT22;20624;55.870;26.506;2022-11-20T03:30:14;-4.70;99.90
34360;DHT22;20624;55.870;26.506;2022-11-20T03:32:42;-4.70;99.90
34360;DHT22;20624;55.870;26.506;2022-11-20T03:35:10;-4.70;99.90
34360;DHT22;20624;55.870;26.506;2022-11-20T03:40:05;-3.60;99.90
34360;DHT22;20624;55.870;26.506;2022-11-20T03:42:33;-4.70;99.90
34360;DHT22;20624;55.870;26.506;2022-11-20T03:45:14;-4.70;99.90
34360;DHT22;20624;55.870;26.506;2022-11-20T03:47:42;-4.70;99.90
34360;DHT22;20624;55.870;26.506;2022-11-20T03:50:11;-4.70;99.90
34360;DHT22;20624;55.870;26.506;2022-11-20T03:52:40;-4.70;99.90
34360;DHT22;20624;55.870;26.506;2022-11-20T03:57:35;-4.70;99.90
34360;DHT22;20624;55.870;26.506;2022-11-20T04:00:04;-4.70;99.90
34360;DHT22;20624;55.870;26.506;2022-11-20T04:02:32;-4.70;99.90
34360;DHT22;20624;55.870;26.506;2022-11-20T04:05:00;-4.70;99.90
34360;DHT22;20624;55.870;26.506;2022-11-20T04:07:27;-4.70;99.90
34360;DHT22;20624;55.870;26.506;2022-11-20T04:09:55;-4.60;99.90
34360;DHT22;20624;55.870;26.506;2022-11-20T04:17:18;-4.50;99.90
34360;DHT22;20624;55.870;26.506;2022-11-20T04:19:45;-4.90;99.90
34360;DHT22;20624;55.870;26.506;2022-11-20T04:22:14;-4.60;99.90
34360;DHT22;20624;55.870;26.506;2022-11-20T04:27:09;-4.60;99.90
34360;DHT22;20624;55.870;26.506;2022-11-20T04:29:37;-4.60;99.90
34360;DHT22;20624;55.870;26.506;2022-11-20T04:34:35;-4.60;99.90
34360;DHT22;20624;55.870;26.506;2022-11-20T04:37:02;-4.60;99.90
34360;DHT22;20624;55.870;26.506;2022-11-20T04:39:30;-6.80;99.90
34360;DHT22;20624;55.870;26.506;2022-11-20T04:41:58;-4.60;99.90
34360;DHT22;20624;55.870;26.506;2022-11-20T04:49:40;-4.60;99.90
34360;DHT22;20624;55.870;26.506;2022-11-20T04:52:07;-4.70;99.90
34360;DHT22;20624;55.870;26.506;2022-11-20T04:54:34;-4.70;99.90
34360;DHT22;20624;55.870;26.506;2022-11-20T04:57:02;-4.70;99.90
34360;DHT22;20624;55.870;26.506;2022-11-20T04:59:31;-4.70;99.90
34360;DHT22;20624;55.870;26.506;2022-11-20T05:01:58;-3.80;99.90
34360;DHT22;20624;55.870;26.506;2022-11-20T05:04:25;-4.70;99.90
34360;DHT22;20624;55.870;26.506;2022-11-20T05:06:53;-4.80;99.90
34360;DHT22;20624;55.870;26.506;2022-11-20T05:11:49;-4.70;99.90
34360;DHT22;20624;55.870;26.506;2022-11-20T05:16:45;-6.50;99.90
34360;DHT22;20624;55.870;26.506;2022-11-20T05:24:09;-4.60;99.90
34360;DHT22;20624;55.870;26.506;2022-11-20T05:26:37;-4.60;99.90
34360;DHT22;20624;55.870;26.506;2022-11-20T05:29:05;-4.60;99.90
34360;DHT22;20624;55.870;26.506;2022-11-20T05:31:32;-4.60;99.90
34360;DHT22;20624;55.870;26.506;2022-11-20T05:34:00;-4.60;99.90
34360;DHT22;20624;55.870;26.506;2022-11-20T05:36:27;-4.60;99.90
34360;DHT22;20624;55.870;26.506;2022-11-20T05:41:28;-4.60;99.90
34360;DHT22;20624;55.870;26.506;2022-11-20T05:43:56;-4.60;99.90
34360;DHT22;20624;55.870;26.506;2022-11-20T05:46:24;-4.50;99.90
34360;DHT22;20624;55.870;26.506;2022-11-20T05:48:55;-4.50;99.90
34360;DHT22;20624;55.870;26.506;2022-11-20T05:51:23;-4.50;99.90
34360;DHT22;20624;55.870;26.506;2022-11-20T05:53:50;-4.50;99.90
34360;DHT22;20624;55.870;26.506;2022-11-20T05:56:20;-4.00;99.90
34360;DHT22;20624;55.870;26.506;2022-11-20T05:58:48;-4.60;99.90
34360;DHT22;20624;55.870;26.506;2022-11-20T06:01:21;-4.60;99.90
34360;DHT22;20624;55.870;26.506;2022-11-20T06:03:50;-4.50;99.90
34360;DHT22;20624;55.870;26.506;2022-11-20T06:08:46;-4.60;99.90
34360;DHT22;20624;55.870;26.506;2022-11-20T06:11:15;-4.60;99.90
34360;DHT22;20624;55.870;26.506;2022-11-20T06:13:43;-4.70;99.90
34360;DHT22;20624;55.870;26.506;2022-11-20T06:16:11;-4.70;99.90
34360;DHT22;20624;55.870;26.506;2022-11-20T06:18:40;-4.70;99.90
34360;DHT22;20624;55.870;26.506;2022-11-20T06:21:13;-4.70;99.90
34360;DHT22;20624;55.870;26.506;2022-11-20T06:23:42;-4.80;99.90
34360;DHT22;20624;55.870;26.506;2022-11-20T06:26:23;-4.90;99.90
34360;DHT22;20624;55.870;26.506;2022-11-20T06:28:52;-4.80;99.90
34360;DHT22;20624;55.870;26.506;2022-11-20T06:31:22;-4.90;99.90
34360;DHT22;20624;55.870;26.506;2022-11-20T06:36:19;-5.10;99.90
34360;DHT22;20624;55.870;26.506;2022-11-20T06:38:47;-4.80;99.90
34360;DHT22;20624;55.870;26.506;2022-11-20T06:41:17;-3.90;99.90
34360;DHT22;20624;55.870;26.506;2022-11-20T06:43:45;-4.10;99.90
34360;DHT22;20624;55.870;26.506;2022-11-20T06:46:13;-3.20;99.00
34360;DHT22;20624;55.870;26.506;2022-11-20T06:53:37;-2.00;82.50
34360;DHT22;20624;55.870;26.506;2022-11-20T07:01:06;-1.00;68.80
34360;DHT22;20624;55.870;26.506;2022-11-20T07:03:34;-0.60;63.70
34360;DHT22;20624;55.870;26.506;2022-11-20T07:06:03;-0.40;68.10
34360;DHT22;20624;55.870;26.506;2022-11-20T07:08:31;-0.10;72.60
34360;DHT22;20624;55.870;26.506;2022-11-20T07:11:00;0.10;55.40
34360;DHT22;20624;55.870;26.506;2022-11-20T07:13:28;0.00;53.40
34360;DHT22;20624;55.870;26.506;2022-11-20T07:15:59;0.10;52.00
34360;DHT22;20624;55.870;26.506;2022-11-20T07:18:27;0.20;50.60
34360;DHT22;20624;55.870;26.506;2022-11-20T07:20:55;0.30;48.40
34360;DHT22;20624;55.870;26.506;2022-11-20T07:28:18;0.40;46.00
34360;DHT22;20624;55.870;26.506;2022-11-20T07:30:50;0.40;45.80
34360;DHT22;20624;55.870;26.506;2022-11-20T07:33:18;0.40;45.20
34360;DHT22;20624;55.870;26.506;2022-11-20T07:35:46;1.50;47.60
34360;DHT22;20624;55.870;26.506;2022-11-20T07:38:14;-0.30;46.40
34360;DHT22;20624;55.870;26.506;2022-11-20T07:43:09;-1.30;55.70
34360;DHT22;20624;55.870;26.506;2022-11-20T07:48:05;-1.90;56.70
34360;DHT22;20624;55.870;26.506;2022-11-20T07:50:32;-2.30;61.30
34360;DHT22;20624;55.870;26.506;2022-11-20T07:53:04;-2.60;78.90
34360;DHT22;20624;55.870;26.506;2022-11-20T07:55:33;-2.90;69.50
34360;DHT22;20624;55.870;26.506;2022-11-20T07:58:01;-3.00;73.70
34360;DHT22;20624;55.870;26.506;2022-11-20T08:00:29;-3.00;74.50
34360;DHT22;20624;55.870;26.506;2022-11-20T08:02:56;-3.00;74.80
34360;DHT22;20624;55.870;26.506;2022-11-20T08:05:24;-3.00;72.10
34360;DHT22;20624;55.870;26.506;2022-11-20T08:07:51;-3.10;73.40
34360;DHT22;20624;55.870;26.506;2022-11-20T08:10:19;-3.00;74.60
34360;DHT22;20624;55.870;26.506;2022-11-20T08:12:48;-2.80;69.50
34360;DHT22;20624;55.870;26.506;2022-11-20T08:15:34;-2.80;68.70
34360;DHT22;20624;55.870;26.506;2022-11-20T08:18:07;-2.70;70.10
34360;DHT22;20624;55.870;26.506;2022-11-20T08:20:55;-1.70;64.90
34360;DHT22;20624;55.870;26.506;2022-11-20T08:23:23;0.20;59.50
34360;DHT22;20624;55.870;26.506;2022-11-20T08:25:51;-0.40;52.90
34360;DHT22;20624;55.870;26.506;2022-11-20T08:30:49;-1.20;48.30
34360;DHT22;20624;55.870;26.506;2022-11-20T08:33:17;0.60;50.40
34360;DHT22;20624;55.870;26.506;2022-11-20T08:35:45;-1.50;49.90
34360;DHT22;20624;55.870;26.506;2022-11-20T08:38:13;-0.20;43.80
34360;DHT22;20624;55.870;26.506;2022-11-20T08:40:40;0.20;42.10
34360;DHT22;20624;55.870;26.506;2022-11-20T08:43:28;-0.50;41.50
34360;DHT22;20624;55.870;26.506;2022-11-20T08:45:56;-2.60;53.00
34360;DHT22;20624;55.870;26.506;2022-11-20T08:48:24;-1.60;45.90
34360;DHT22;20624;55.870;26.506;2022-11-20T08:50:51;-2.10;51.00
34360;DHT22;20624;55.870;26.506;2022-11-20T08:53:19;-2.40;55.30
34360;DHT22;20624;55.870;26.506;2022-11-20T08:55:47;-2.60;57.30
34360;DHT22;20624;55.870;26.506;2022-11-20T08:58:15;-3.50;69.90
34360;DHT22;20624;55.870;26.506;2022-11-20T09:00:42;-3.00;62.60
34360;DHT22;20624;55.870;26.506;2022-11-20T09:03:10;-3.10;62.80
34360;DHT22;20624;55.870;26.506;2022-11-20T09:05:38;-3.50;65.50
34360;DHT22;20624;55.870;26.506;2022-11-20T09:08:05;-3.60;69.90
34360;DHT22;20624;55.870;26.506;2022-11-20T09:10:33;-3.60;81.20
34360;DHT22;20624;55.870;26.506;2022-11-20T09:13:01;-3.70;71.30
34360;DHT22;20624;55.870;26.506;2022-11-20T09:15:28;-3.90;74.00
34360;DHT22;20624;55.870;26.506;2022-11-20T09:18:01;-3.50;74.60
34360;DHT22;20624;55.870;26.506;2022-11-20T09:22:59;-3.50;69.80
34360;DHT22;20624;55.870;26.506;2022-11-20T09:25:27;-3.60;71.30
34360;DHT22;20624;55.870;26.506;2022-11-20T09:27:58;-3.50;73.10
34360;DHT22;20624;55.870;26.506;2022-11-20T09:30:26;-3.30;71.70
34360;DHT22;20624;55.870;26.506;2022-11-20T09:32:54;-2.40;62.80
34360;DHT22;20624;55.870;26.506;2022-11-20T09:35:22;-2.10;61.60
34360;DHT22;20624;55.870;26.506;2022-11-20T09:40:22;-0.40;43.60
34360;DHT22;20624;55.870;26.506;2022-11-20T09:43:19;0.60;50.70
34360;DHT22;20624;55.870;26.506;2022-11-20T09:45:57;-0.60;41.90
34360;DHT22;20624;55.870;26.506;2022-11-20T09:54:17;-1.50;44.80
34360;DHT22;20624;55.870;26.506;2022-11-20T09:56:55;-1.60;45.20
34360;DHT22;20624;55.870;26.506;2022-11-20T09:59:34;-1.80;47.40
34360;DHT22;20624;55.870;26.506;2022-11-20T10:02:15;-1.80;46.80
34360;DHT22;20624;55.870;26.506;2022-11-20T10:04:57;-1.30;43.20
34360;DHT22;20624;55.870;26.506;2022-11-20T10:07:40;-1.10;42.20
34360;DHT22;20624;55.870;26.506;2022-11-20T10:10:34;-0.90;41.10
34360;DHT22;20624;55.870;26.506;2022-11-20T10:13:35;0.00;36.40
34360;DHT22;20624;55.870;26.506;2022-11-20T10:33:14;-2.30;48.60
34360;DHT22;20624;55.870;26.506;2022-11-20T10:36:22;-3.40;53.40
34360;DHT22;20624;55.870;26.506;2022-11-20T10:39:01;-4.80;63.00
34360;DHT22;20624;55.870;26.506;2022-11-20T10:41:35;-2.90;55.20
34360;DHT22;20624;55.870;26.506;2022-11-20T10:44:12;-1.70;45.90
34360;DHT22;20624;55.870;26.506;2022-11-20T10:49:18;-0.90;39.60
34360;DHT22;20624;55.870;26.506;2022-11-20T10:52:18;-1.40;48.80
34360;DHT22;20624;55.870;26.506;2022-11-20T11:00:17;-2.60;46.70
34360;DHT22;20624;55.870;26.506;2022-11-20T11:02:48;-2.80;48.70
34360;DHT22;20624;55.870;26.506;2022-11-20T11:10:23;-3.80;66.30
34360;DHT22;20624;55.870;26.506;2022-11-20T11:12:51;-3.90;57.80
34360;DHT22;20624;55.870;26.506;2022-11-20T12:13:57;-4.30;73.60
34360;DHT22;20624;55.870;26.506;2022-11-20T12:16:32;-4.40;74.70
34360;DHT22;20624;55.870;26.506;2022-11-20T12:19:02;-4.40;75.90
34360;DHT22;20624;55.870;26.506;2022-11-20T12:21:46;-4.40;75.70
34360;DHT22;20624;55.870;26.506;2022-11-20T12:27:36;-4.40;76.70
34360;DHT22;20624;55.870;26.506;2022-11-20T12:32:58;-4.50;79.50
34360;DHT22;20624;55.870;26.506;2022-11-20T12:38:51;-4.50;79.60
34360;DHT22;20624;55.870;26.506;2022-11-20T12:41:57;-4.40;78.60
34360;DHT22;20624;55.870;26.506;2022-11-20T12:54:04;-4.50;77.50
34360;DHT22;20624;55.870;26.506;2022-11-20T13:07:48;-4.60;77.50
34360;DHT22;20624;55.870;26.506;2022-11-20T13:10:45;-4.70;75.30
34360;DHT22;20624;55.870;26.506;2022-11-20T13:15:56;-4.70;72.60
34360;DHT22;20624;55.870;26.506;2022-11-20T13:18:29;-4.80;78.00
34360;DHT22;20624;55.870;26.506;2022-11-20T13:21:01;-4.80;77.50
34360;DHT22;20624;55.870;26.506;2022-11-20T13:28:42;-4.70;83.60
34360;DHT22;20624;55.870;26.506;2022-11-20T13:31:33;-4.70;80.20
34360;DHT22;20624;55.870;26.506;2022-11-20T13:34:04;-4.80;79.80
34360;DHT22;20624;55.870;26.506;2022-11-20T13:36:33;-4.80;83.70
34360;DHT22;20624;55.870;26.506;2022-11-20T13:44:22;-4.80;80.40
34360;DHT22;20624;55.870;26.506;2022-11-20T13:46:52;-4.80;80.30
34360;DHT22;20624;55.870;26.506;2022-11-20T13:49:34;-4.80;83.30
34360;DHT22;20624;55.870;26.506;2022-11-20T14:00:32;-4.70;79.60
34360;DHT22;20624;55.870;26.506;2022-11-20T14:03:17;-4.80;80.10
34360;DHT22;20624;55.870;26.506;2022-11-20T14:06:10;-4.80;82.40
34360;DHT22;20624;55.870;26.506;2022-11-20T14:08:44;-4.90;80.70
34360;DHT22;20624;55.870;26.506;2022-11-20T14:14:01;-4.80;80.30
34360;DHT22;20624;55.870;26.506;2022-11-20T14:16:33;-4.80;82.90
34360;DHT22;20624;55.870;26.506;2022-11-20T14:19:30;-4.80;80.30
34360;DHT22;20624;55.870;26.506;2022-11-20T14:24:47;-4.80;81.20
34360;DHT22;20624;55.870;26.506;2022-11-20T14:29:49;-4.70;81.70
34360;DHT22;20624;55.870;26.506;2022-11-20T14:32:21;-4.70;81.80
34360;DHT22;20624;55.870;26.506;2022-11-20T14:34:50;-4.70;82.10
34360;DHT22;20624;55.870;26.506;2022-11-20T14:39:51;-4.70;91.20
34360;DHT22;20624;55.870;26.506;2022-11-20T14:42:21;-4.70;91.00
34360;DHT22;20624;55.870;26.506;2022-11-20T14:44:50;-4.70;91.60
34360;DHT22;20624;55.870;26.506;2022-11-20T14:47:29;-4.60;91.40
34360;DHT22;20624;55.870;26.506;2022-11-20T14:49:58;-4.60;92.00
34360;DHT22;20624;55.870;26.506;2022-11-20T14:52:27;-4.70;91.90
34360;DHT22;20624;55.870;26.506;2022-11-20T14:54:57;-4.70;92.40
34360;DHT22;20624;55.870;26.506;2022-11-20T14:57:35;-4.80;93.20
34360;DHT22;20624;55.870;26.506;2022-11-20T15:02:44;-4.70;93.10
34360;DHT22;20624;55.870;26.506;2022-11-20T15:07:46;-4.70;94.50
34360;DHT22;20624;55.870;26.506;2022-11-20T15:10:21;-4.70;93.60
34360;DHT22;20624;55.870;26.506;2022-11-20T15:17:53;-4.60;96.80
34360;DHT22;20624;55.870;26.506;2022-11-20T15:20:25;-4.60;96.70
34360;DHT22;20624;55.870;26.506;2022-11-20T15:22:53;-4.50;96.90
34360;DHT22;20624;55.870;26.506;2022-11-20T15:27:56;-4.50;95.90
34360;DHT22;20624;55.870;26.506;2022-11-20T15:30:24;-4.60;95.40
34360;DHT22;20624;55.870;26.506;2022-11-20T15:32:51;-4.60;95.40
34360;DHT22;20624;55.870;26.506;2022-11-20T15:35:19;-4.50;96.40
34360;DHT22;20624;55.870;26.506;2022-11-20T15:37:47;-4.50;96.00
34360;DHT22;20624;55.870;26.506;2022-11-20T15:40:14;-4.50;94.80
34360;DHT22;20624;55.870;26.506;2022-11-20T15:42:44;-4.60;94.00
34360;DHT22;20624;55.870;26.506;2022-11-20T15:45:45;-4.60;92.70
34360;DHT22;20624;55.870;26.506;2022-11-20T15:56:11;-4.70;94.50
34360;DHT22;20624;55.870;26.506;2022-11-20T15:58:40;-4.70;94.50
34360;DHT22;20624;55.870;26.506;2022-11-20T16:01:12;-4.80;94.80
34360;DHT22;20624;55.870;26.506;2022-11-20T16:06:08;-4.70;94.60
34360;DHT22;20624;55.870;26.506;2022-11-20T16:08:36;-4.70;95.60
34360;DHT22;20624;55.870;26.506;2022-11-20T16:11:04;-4.70;95.10
34360;DHT22;20624;55.870;26.506;2022-11-20T16:13:34;-4.70;94.10
34360;DHT22;20624;55.870;26.506;2022-11-20T16:16:27;-4.70;93.30
34360;DHT22;20624;55.870;26.506;2022-11-20T16:18:55;-4.70;93.40
34360;DHT22;20624;55.870;26.506;2022-11-20T16:21:23;-4.70;94.30
34360;DHT22;20624;55.870;26.506;2022-11-20T16:26:29;-4.60;95.70
34360;DHT22;20624;55.870;26.506;2022-11-20T16:28:58;-4.60;94.00
34360;DHT22;20624;55.870;26.506;2022-11-20T16:31:27;-4.60;93.90
34360;DHT22;20624;55.870;26.506;2022-11-20T16:33:57;-4.60;92.70
34360;DHT22;20624;55.870;26.506;2022-11-20T16:36:27;-4.60;93.50
34360;DHT22;20624;55.870;26.506;2022-11-20T16:41:24;-4.60;92.00
34360;DHT22;20624;55.870;26.506;2022-11-20T16:43:54;-4.60;94.70
34360;DHT22;20624;55.870;26.506;2022-11-20T16:46:27;-4.50;92.40
34360;DHT22;20624;55.870;26.506;2022-11-20T16:48:59;-4.50;93.40
34360;DHT22;20624;55.870;26.506;2022-11-20T16:51:29;-4.50;92.80
34360;DHT22;20624;55.870;26.506;2022-11-20T16:53:57;-4.50;93.00
34360;DHT22;20624;55.870;26.506;2022-11-20T16:56:27;-4.50;93.20
34360;DHT22;20624;55.870;26.506;2022-11-20T16:58:57;-4.40;92.70
34360;DHT22;20624;55.870;26.506;2022-11-20T17:03:59;-4.50;92.60
34360;DHT22;20624;55.870;26.506;2022-11-20T17:06:40;-4.40;90.50
34360;DHT22;20624;55.870;26.506;2022-11-20T17:14:06;-4.40;91.80
34360;DHT22;20624;55.870;26.506;2022-11-20T17:16:34;-4.40;89.40
34360;DHT22;20624;55.870;26.506;2022-11-20T17:21:32;-4.30;91.10
34360;DHT22;20624;55.870;26.506;2022-11-20T17:24:05;-4.30;91.10
34360;DHT22;20624;55.870;26.506;2022-11-20T17:26:33;-4.30;91.10
34360;DHT22;20624;55.870;26.506;2022-11-20T17:29:03;-4.30;89.10
34360;DHT22;20624;55.870;26.506;2022-11-20T17:34:01;-4.20;89.50
34360;DHT22;20624;55.870;26.506;2022-11-20T17:43:58;-4.20;87.40
34360;DHT22;20624;55.870;26.506;2022-11-20T17:46:32;-4.20;87.40
34360;DHT22;20624;55.870;26.506;2022-11-20T17:49:00;-4.20;86.10
34360;DHT22;20624;55.870;26.506;2022-11-20T17:51:30;-4.20;86.50
34360;DHT22;20624;55.870;26.506;2022-11-20T17:53:59;-4.10;88.90
34360;DHT22;20624;55.870;26.506;2022-11-20T17:56:31;-4.10;89.20
34360;DHT22;20624;55.870;26.506;2022-11-20T17:59:17;-4.10;89.80
34360;DHT22;20624;55.870;26.506;2022-11-20T18:04:14;-4.10;89.50
34360;DHT22;20624;55.870;26.506;2022-11-20T18:06:42;-4.10;90.10
34360;DHT22;20624;55.870;26.506;2022-11-20T18:09:10;-4.10;90.20
34360;DHT22;20624;55.870;26.506;2022-11-20T18:11:39;-4.10;90.20
34360;DHT22;20624;55.870;26.506;2022-11-20T18:14:12;-4.10;90.20
34360;DHT22;20624;55.870;26.506;2022-11-20T18:16:57;-4.10;90.30
34360;DHT22;20624;55.870;26.506;2022-11-20T18:19:28;-4.10;90.80
34360;DHT22;20624;55.870;26.506;2022-11-20T18:22:00;-4.10;90.90
34360;DHT22;20624;55.870;26.506;2022-11-20T18:24:30;-4.10;91.30
34360;DHT22;20624;55.870;26.506;2022-11-20T18:26:58;-4.10;90.20
34360;DHT22;20624;55.870;26.506;2022-11-20T18:29:27;-4.10;90.50
34360;DHT22;20624;55.870;26.506;2022-11-20T18:34:22;-4.10;91.30
34360;DHT22;20624;55.870;26.506;2022-11-20T18:36:50;-4.10;90.80
34360;DHT22;20624;55.870;26.506;2022-11-20T18:39:17;-4.10;90.70
34360;DHT22;20624;55.870;26.506;2022-11-20T18:44:32;-4.10;90.90
34360;DHT22;20624;55.870;26.506;2022-11-20T18:47:26;-4.00;90.60
34360;DHT22;20624;55.870;26.506;2022-11-20T18:52:32;-4.00;91.70
34360;DHT22;20624;55.870;26.506;2022-11-20T18:55:01;-4.00;91.60
34360;DHT22;20624;55.870;26.506;2022-11-20T18:59:57;-3.90;91.40
34360;DHT22;20624;55.870;26.506;2022-11-20T19:05:12;-3.90;91.20
34360;DHT22;20624;55.870;26.506;2022-11-20T19:07:41;-3.90;91.60
34360;DHT22;20624;55.870;26.506;2022-11-20T19:10:09;-3.90;92.10
34360;DHT22;20624;55.870;26.506;2022-11-20T19:15:05;-3.90;90.80
34360;DHT22;20624;55.870;26.506;2022-11-20T19:20:00;-3.80;91.10
34360;DHT22;20624;55.870;26.506;2022-11-20T19:22:29;-3.80;91.20
34360;DHT22;20624;55.870;26.506;2022-11-20T19:24:56;-3.90;91.30
34360;DHT22;20624;55.870;26.506;2022-11-20T19:27:24;-3.90;91.90
34360;DHT22;20624;55.870;26.506;2022-11-20T19:29:52;-3.80;92.00
34360;DHT22;20624;55.870;26.506;2022-11-20T19:37:20;-3.80;91.80
34360;DHT22;20624;55.870;26.506;2022-11-20T19:39:47;-3.90;91.70
34360;DHT22;20624;55.870;26.506;2022-11-20T19:42:15;-3.90;91.40
34360;DHT22;20624;55.870;26.506;2022-11-20T19:44:43;-3.90;91.70
34360;DHT22;20624;55.870;26.506;2022-11-20T19:49:40;-3.80;91.30
34360;DHT22;20624;55.870;26.506;2022-11-20T19:52:08;-3.90;90.60
34360;DHT22;20624;55.870;26.506;2022-11-20T19:54:36;-3.90;91.20
34360;DHT22;20624;55.870;26.506;2022-11-20T19:57:07;-3.80;91.20
34360;DHT22;20624;55.870;26.506;2022-11-20T19:59:34;-4.00;91.50
34360;DHT22;20624;55.870;26.506;2022-11-20T20:02:02;-3.80;91.00
34360;DHT22;20624;55.870;26.506;2022-11-20T20:04:30;-3.90;90.40
34360;DHT22;20624;55.870;26.506;2022-11-20T20:09:25;-3.90;90.90
34360;DHT22;20624;55.870;26.506;2022-11-20T20:11:53;-3.90;90.20
34360;DHT22;20624;55.870;26.506;2022-11-20T20:14:22;-4.00;88.70
34360;DHT22;20624;55.870;26.506;2022-11-20T20:16:50;-4.00;87.70
34360;DHT22;20624;55.870;26.506;2022-11-20T20:19:17;-4.00;89.10
34360;DHT22;20624;55.870;26.506;2022-11-20T20:24:15;-3.90;85.90
34360;DHT22;20624;55.870;26.506;2022-11-20T20:26:43;-3.90;87.60
34360;DHT22;20624;55.870;26.506;2022-11-20T20:29:10;-4.00;87.90
34360;DHT22;20624;55.870;26.506;2022-11-20T20:31:41;-4.00;87.80
34360;DHT22;20624;55.870;26.506;2022-11-20T20:34:09;-4.00;87.50
34360;DHT22;20624;55.870;26.506;2022-11-20T20:41:33;-4.00;88.00
34360;DHT22;20624;55.870;26.506;2022-11-20T20:46:48;-4.00;88.70
34360;DHT22;20624;55.870;26.506;2022-11-20T20:51:44;-4.00;90.80
34360;DHT22;20624;55.870;26.506;2022-11-20T20:59:07;-4.00;91.80
34360;DHT22;20624;55.870;26.506;2022-11-20T21:01:35;-4.00;91.30
34360;DHT22;20624;55.870;26.506;2022-11-20T21:06:31;-4.00;91.20
34360;DHT22;20624;55.870;26.506;2022-11-20T21:13:54;-4.10;93.60
34360;DHT22;20624;55.870;26.506;2022-11-20T21:18:51;-4.10;95.00
34360;DHT22;20624;55.870;26.506;2022-11-20T21:24:08;-4.10;95.70
34360;DHT22;20624;55.870;26.506;2022-11-20T21:33:59;-4.20;97.00
34360;DHT22;20624;55.870;26.506;2022-11-20T21:38:59;-4.20;97.70
34360;DHT22;20624;55.870;26.506;2022-11-20T21:41:29;-4.20;97.40
34360;DHT22;20624;55.870;26.506;2022-11-20T21:43:58;-4.20;98.60
34360;DHT22;20624;55.870;26.506;2022-11-20T21:46:46;-4.20;98.60
34360;DHT22;20624;55.870;26.506;2022-11-20T21:49:14;-4.20;98.80
34360;DHT22;20624;55.870;26.506;2022-11-20T21:54:11;-4.10;99.90
34360;DHT22;20624;55.870;26.506;2022-11-20T22:06:31;-4.10;95.80
34360;DHT22;20624;55.870;26.506;2022-11-20T22:21:38;-4.30;97.50